createdAt,value
2022-09-04T00:00:01.818Z,41.18
2022-09-04T00:02:34.369Z,41.42
2022-09-04T00:05:17.194Z,41.24
2022-09-04T00:08:02.273Z,41.14
2022-09-04T00:10:55.864Z,40.60
2022-09-04T00:13:33.571Z,39.84
2022-09-04T00:16:51.108Z,40.61
2022-09-04T00:19:32.024Z,40.75
2022-09-04T00:22:00.130Z,40.39
2022-09-04T00:24:39.941Z,40.47
2022-09-04T00:27:32.931Z,40.31
2022-09-04T00:30:14.228Z,40.59
2022-09-04T00:32:59.269Z,40.47
2022-09-04T00:35:41.114Z,40.27
2022-09-04T00:38:19.434Z,40.43
2022-09-04T00:41:07.800Z,40.29
2022-09-04T00:43:57.025Z,40.21
2022-09-04T00:46:42.355Z,40.28
2022-09-04T00:49:33.699Z,39.94
2022-09-04T00:52:36.328Z,40.32
2022-09-04T00:55:44.475Z,39.66
2022-09-04T00:58:52.322Z,40.18
2022-09-04T01:01:24.907Z,40.62
2022-09-04T01:04:24.665Z,40.89
2022-09-04T01:07:24.112Z,40.77
2022-09-04T01:10:16.791Z,41.07
2022-09-04T01:13:09.069Z,41.04
2022-09-04T01:15:47.040Z,41.00
2022-09-04T01:18:18.764Z,41.07
2022-09-04T01:20:56.485Z,41.37
2022-09-04T01:23:43.834Z,41.77
2022-09-04T01:26:45.173Z,41.43
2022-09-04T01:29:11.711Z,41.53
2022-09-04T01:32:09.369Z,41.51
2022-09-04T01:34:59.747Z,41.58
2022-09-04T01:37:58.825Z,42.09
2022-09-04T01:40:46.774Z,42.37
2022-09-04T01:43:18.685Z,42.64
2022-09-04T01:46:05.220Z,42.31
2022-09-04T01:48:36.810Z,42.13
2022-09-04T01:51:12.971Z,42.50
2022-09-04T01:53:46.329Z,42.76
2022-09-04T01:56:21.484Z,42.80
2022-09-04T01:59:06.411Z,43.11
2022-09-04T02:01:47.797Z,43.58
2022-09-04T02:04:28.561Z,43.51
2022-09-04T02:07:19.554Z,43.47
2022-09-04T02:10:14.153Z,44.09
2022-09-04T02:12:51.211Z,42.87
2022-09-04T02:15:37.683Z,42.82
2022-09-04T02:18:26.301Z,42.78
2022-09-04T02:21:00.001Z,43.40
2022-09-04T02:23:53.813Z,43.12
2022-09-04T02:26:30.366Z,43.60
2022-09-04T02:29:00.777Z,44.00
2022-09-04T02:31:38.768Z,43.88
2022-09-04T02:34:12.510Z,44.18
2022-09-04T02:36:52.590Z,43.98
2022-09-04T02:39:34.828Z,44.82
2022-09-04T02:42:18.231Z,44.75
2022-09-04T02:44:56.927Z,43.11
2022-09-04T02:47:31.774Z,44.24
2022-09-04T02:50:26.376Z,44.66
2022-09-04T02:53:18.422Z,44.60
2022-09-04T02:56:26.852Z,44.74
2022-09-04T02:59:17.153Z,44.64
2022-09-04T03:01:53.501Z,45.09
2022-09-04T03:04:23.214Z,45.29
2022-09-04T03:07:33.068Z,45.08
2022-09-04T03:10:19.373Z,44.99
2022-09-04T03:12:51.817Z,44.64
2022-09-04T03:15:40.081Z,45.26
2022-09-04T03:18:19.057Z,45.21
2022-09-04T03:20:58.109Z,45.90
2022-09-04T03:23:40.473Z,45.85
2022-09-04T03:26:34.192Z,45.52
2022-09-04T03:29:09.194Z,45.06
2022-09-04T03:32:16.347Z,45.41
2022-09-04T03:34:49.148Z,46.11
2022-09-04T03:37:41.063Z,45.87
2022-09-04T03:40:37.297Z,45.79
2022-09-04T03:43:39.411Z,45.66
2022-09-04T03:46:21.487Z,45.68
2022-09-04T03:49:14.533Z,45.99
2022-09-04T03:52:05.716Z,45.18
2022-09-04T03:55:19.545Z,44.92
2022-09-04T03:57:59.812Z,45.11
2022-09-04T04:00:31.654Z,45.16
2022-09-04T04:03:07.456Z,45.45
2022-09-04T04:05:44.074Z,45.29
2022-09-04T04:08:45.512Z,45.71
2022-09-04T04:11:21.053Z,45.53
2022-09-04T04:13:59.457Z,45.79
2022-09-04T04:17:03.658Z,45.25
2022-09-04T04:19:42.673Z,45.19
2022-09-04T04:22:20.761Z,44.97
2022-09-04T04:25:05.996Z,45.04
2022-09-04T04:27:54.053Z,45.27
2022-09-04T04:30:21.121Z,44.97
2022-09-04T04:33:12.503Z,45.34
2022-09-04T04:35:54.813Z,45.66
2022-09-04T04:38:44.759Z,45.34
2022-09-04T04:41:55.454Z,45.50
2022-09-04T04:45:10.535Z,45.15
2022-09-04T04:47:55.395Z,45.04
2022-09-04T04:50:46.221Z,45.17
2022-09-04T04:53:17.257Z,45.15
2022-09-04T04:55:58.118Z,45.08
2022-09-04T04:58:58.350Z,45.03
2022-09-04T05:01:50.738Z,45.17
2022-09-04T05:04:30.061Z,45.68
2022-09-04T05:07:37.556Z,45.23
2022-09-04T05:10:19.187Z,45.44
2022-09-04T05:13:02.193Z,45.43
2022-09-04T05:16:07.860Z,45.64
2022-09-04T05:18:49.820Z,45.52
2022-09-04T05:21:34.536Z,45.42
2022-09-04T05:24:13.975Z,45.59
2022-09-04T05:27:24.000Z,45.75
2022-09-04T05:30:12.664Z,45.82
2022-09-04T05:32:56.362Z,46.69
2022-09-04T05:35:41.800Z,46.54
2022-09-04T05:38:16.644Z,46.71
2022-09-04T05:41:15.165Z,47.02
2022-09-04T05:44:03.625Z,46.94
2022-09-04T05:46:39.141Z,46.52
2022-09-04T05:49:35.759Z,47.13
2022-09-04T05:52:22.508Z,46.19
2022-09-04T05:55:08.205Z,47.00
2022-09-04T05:57:39.854Z,47.42
2022-09-04T06:00:10.086Z,47.78
2022-09-04T06:03:11.795Z,47.78
2022-09-04T06:05:58.483Z,48.35
2022-09-04T06:08:49.929Z,48.11
2022-09-04T06:11:36.911Z,48.25
2022-09-04T06:14:37.421Z,48.29
2022-09-04T06:17:15.678Z,48.60
2022-09-04T06:19:53.497Z,47.88
2022-09-04T06:22:38.358Z,48.45
2022-09-04T06:25:14.351Z,48.57
2022-09-04T06:27:59.948Z,48.49
2022-09-04T06:30:50.476Z,48.81
2022-09-04T06:33:40.073Z,48.42
2022-09-04T06:36:12.681Z,48.19
2022-09-04T06:39:00.515Z,48.26
2022-09-04T06:41:54.753Z,48.69
2022-09-04T06:44:39.987Z,48.13
2022-09-04T06:47:31.349Z,47.71
2022-09-04T06:50:16.675Z,47.76
2022-09-04T06:53:04.296Z,47.60
2022-09-04T06:55:54.679Z,47.31
2022-09-04T06:58:41.252Z,47.42
2022-09-04T07:01:12.247Z,47.42
2022-09-04T07:03:50.824Z,47.36
2022-09-04T07:06:30.157Z,47.64
2022-09-04T07:09:22.343Z,46.91
2022-09-04T07:12:10.607Z,47.38
2022-09-04T07:15:24.992Z,46.62
2022-09-04T07:18:25.522Z,46.79
2022-09-04T07:21:15.917Z,46.34
2022-09-04T07:23:45.383Z,46.00
2022-09-04T07:26:28.402Z,45.81
2022-09-04T07:29:29.684Z,45.98
2022-09-04T07:32:20.227Z,45.57
2022-09-04T07:34:55.897Z,45.67
2022-09-04T07:38:03.555Z,45.61
2022-09-04T07:40:39.541Z,45.97
2022-09-04T07:43:21.438Z,45.62
2022-09-04T07:45:58.711Z,45.69
2022-09-04T07:48:44.629Z,46.02
2022-09-04T07:51:22.168Z,45.78
2022-09-04T07:54:11.589Z,45.62
2022-09-04T07:57:07.865Z,45.55
2022-09-04T07:59:59.256Z,45.40
2022-09-04T08:02:56.569Z,45.46
2022-09-04T08:05:30.607Z,45.33
2022-09-04T08:08:21.674Z,45.39
2022-09-04T08:10:48.218Z,45.26
2022-09-04T08:13:22.900Z,45.11
2022-09-04T08:15:56.069Z,44.90
2022-09-04T08:18:35.542Z,44.98
2022-09-04T08:21:21.603Z,45.08
2022-09-04T08:24:16.422Z,45.01
2022-09-04T08:27:05.082Z,44.80
2022-09-04T08:29:59.621Z,44.82
2022-09-04T08:32:38.627Z,44.72
2022-09-04T08:35:35.664Z,44.59
2022-09-04T08:38:24.046Z,44.56
2022-09-04T08:41:17.976Z,44.71
2022-09-04T08:43:50.321Z,44.33
2022-09-04T08:46:36.416Z,44.25
2022-09-04T08:49:37.672Z,44.74
2022-09-04T08:52:21.171Z,44.75
2022-09-04T08:55:29.532Z,44.28
2022-09-04T08:58:10.603Z,44.33
2022-09-04T09:01:08.150Z,44.15
2022-09-04T09:04:05.727Z,44.05
2022-09-04T09:06:35.044Z,43.80
2022-09-04T09:09:19.953Z,44.02
2022-09-04T09:11:58.687Z,44.03
2022-09-04T09:15:02.748Z,43.78
2022-09-04T09:17:53.966Z,43.59
2022-09-04T09:20:54.811Z,43.23
2022-09-04T09:23:41.609Z,44.12
2022-09-04T09:26:28.339Z,43.63
2022-09-04T09:29:13.435Z,43.38
2022-09-04T09:31:52.122Z,43.66
2022-09-04T09:34:27.450Z,43.81
2022-09-04T09:37:21.675Z,44.03
2022-09-04T09:40:06.640Z,43.32
2022-09-04T09:42:57.417Z,43.35
2022-09-04T09:46:02.382Z,43.85
2022-09-04T09:48:37.317Z,42.23
2022-09-04T09:51:18.908Z,42.72
2022-09-04T09:54:22.463Z,42.17
2022-09-04T09:57:13.543Z,41.58
2022-09-04T09:59:52.164Z,41.66
2022-09-04T10:02:55.727Z,41.97
2022-09-04T10:05:39.776Z,41.46
2022-09-04T10:08:44.702Z,40.93
2022-09-04T10:11:48.809Z,40.99
2022-09-04T10:14:49.382Z,40.79
2022-09-04T10:17:54.838Z,41.64
2022-09-04T10:21:12.194Z,41.26
2022-09-04T10:23:48.255Z,40.38
2022-09-04T10:26:44.697Z,41.02
2022-09-04T10:29:32.595Z,41.10
2022-09-04T10:32:07.637Z,40.83
2022-09-04T10:34:50.509Z,39.80
2022-09-04T10:37:35.476Z,40.84
2022-09-04T10:40:43.138Z,39.91
2022-09-04T10:43:17.189Z,39.48
2022-09-04T10:45:43.694Z,40.34
2022-09-04T10:48:35.033Z,40.40
2022-09-04T10:51:27.325Z,40.12
2022-09-04T10:54:07.901Z,39.41
2022-09-04T10:56:56.377Z,40.31
2022-09-04T10:59:57.015Z,38.94
2022-09-04T11:02:47.055Z,39.51
2022-09-04T11:05:24.900Z,39.86
2022-09-04T11:08:13.024Z,38.55
2022-09-04T11:11:07.637Z,38.57
2022-09-04T11:13:37.348Z,38.38
2022-09-04T11:16:21.958Z,37.46
2022-09-04T11:19:21.147Z,36.29
2022-09-04T11:21:56.535Z,35.12
2022-09-04T11:25:19.990Z,35.36
2022-09-04T11:27:59.214Z,32.94
2022-09-04T11:30:29.800Z,33.30
2022-09-04T11:33:10.672Z,31.91
2022-09-04T11:35:45.929Z,31.15
2022-09-04T11:38:17.439Z,30.66
2022-09-04T11:41:04.535Z,30.04
2022-09-04T11:43:40.179Z,30.06
2022-09-04T11:46:21.183Z,28.89
2022-09-04T11:48:47.711Z,28.63
2022-09-04T11:51:40.970Z,26.87
2022-09-04T11:54:26.007Z,26.65
2022-09-04T11:57:19.821Z,28.04
2022-09-04T12:00:07.777Z,28.46
2022-09-04T12:02:52.828Z,27.70
2022-09-04T12:05:39.355Z,27.29
2022-09-04T12:08:21.277Z,27.64
2022-09-04T12:11:22.380Z,27.76
2022-09-04T12:14:15.244Z,26.58
2022-09-04T12:17:10.593Z,26.04
2022-09-04T12:20:26.561Z,26.40
2022-09-04T12:23:18.497Z,26.40
2022-09-04T12:25:45.010Z,25.97
2022-09-04T12:28:46.641Z,26.62
2022-09-04T12:31:35.107Z,25.41
2022-09-04T12:34:40.230Z,24.96
2022-09-04T12:37:37.285Z,24.41
2022-09-04T12:40:41.783Z,24.13
2022-09-04T12:43:29.461Z,23.44
2022-09-04T12:46:12.836Z,23.04
2022-09-04T12:48:58.275Z,24.13
2022-09-04T12:51:35.968Z,23.88
2022-09-04T12:54:34.512Z,25.49
2022-09-04T12:57:26.894Z,25.61
2022-09-04T13:00:15.460Z,26.33
2022-09-04T13:02:51.160Z,27.02
2022-09-04T13:05:51.135Z,27.45
2022-09-04T13:08:54.229Z,28.14
2022-09-04T13:11:59.778Z,28.35
2022-09-04T13:14:26.330Z,28.52
2022-09-04T13:17:06.007Z,29.86
2022-09-04T13:20:00.598Z,29.43
2022-09-04T13:22:41.087Z,28.65
2022-09-04T13:25:16.003Z,28.13
2022-09-04T13:27:48.195Z,27.92
2022-09-04T13:30:24.535Z,28.26
2022-09-04T13:33:14.331Z,26.58
2022-09-04T13:35:59.210Z,25.91
2022-09-04T13:38:31.838Z,25.43
2022-09-04T13:41:20.098Z,24.16
2022-09-04T13:44:23.401Z,24.00
2022-09-04T13:47:00.085Z,22.53
2022-09-04T13:49:32.887Z,22.08
2022-09-04T13:52:08.395Z,22.88
2022-09-04T13:54:42.022Z,22.20
2022-09-04T13:57:21.809Z,22.71
2022-09-04T13:59:50.571Z,21.50
2022-09-04T14:02:24.657Z,20.58
2022-09-04T14:05:14.044Z,21.54
2022-09-04T14:07:45.343Z,19.82
2022-09-04T14:10:55.735Z,21.04
2022-09-04T14:13:41.786Z,20.24
2022-09-04T14:16:15.302Z,20.33
2022-09-04T14:19:10.860Z,21.21
2022-09-04T14:21:49.159Z,21.41
2022-09-04T14:24:38.601Z,22.15
2022-09-04T14:27:39.636Z,23.12
2022-09-04T14:30:18.161Z,23.03
2022-09-04T14:33:21.784Z,23.64
2022-09-04T14:36:10.267Z,24.69
2022-09-04T14:39:01.376Z,26.54
2022-09-04T14:42:06.189Z,25.36
2022-09-04T14:44:58.002Z,25.45
2022-09-04T14:47:42.344Z,24.42
2022-09-04T14:50:15.130Z,23.99
2022-09-04T14:52:48.572Z,24.21
2022-09-04T14:55:30.633Z,24.46
2022-09-04T14:58:10.676Z,24.96
2022-09-04T15:01:07.028Z,24.90
2022-09-04T15:04:06.048Z,25.20
2022-09-04T15:07:01.103Z,25.09
2022-09-04T15:09:39.014Z,25.75
2022-09-04T15:12:25.992Z,25.72
2022-09-04T15:15:11.372Z,26.52
2022-09-04T15:17:46.893Z,26.79
2022-09-04T15:20:22.715Z,26.60
2022-09-04T15:23:14.479Z,26.46
2022-09-04T15:25:59.137Z,26.27
2022-09-04T15:28:39.192Z,26.26
2022-09-04T15:31:42.628Z,26.92
2022-09-04T15:34:19.094Z,26.69
2022-09-04T15:36:46.136Z,26.63
2022-09-04T15:39:27.866Z,27.25
2022-09-04T15:41:54.538Z,27.34
2022-09-04T15:44:39.961Z,27.38
2022-09-04T15:47:18.195Z,27.84
2022-09-04T15:50:00.671Z,28.19
2022-09-04T15:52:43.371Z,29.02
2022-09-04T15:55:35.896Z,29.24
2022-09-04T15:58:29.336Z,29.28
2022-09-04T16:01:17.504Z,29.91
2022-09-04T16:04:07.337Z,30.08
2022-09-04T16:06:54.533Z,30.65
2022-09-04T16:09:30.656Z,30.73
2022-09-04T16:12:18.806Z,31.12
2022-09-04T16:14:55.483Z,31.86
2022-09-04T16:17:26.704Z,32.54
2022-09-04T16:20:09.878Z,32.61
2022-09-04T16:22:49.002Z,32.42
2022-09-04T16:25:19.300Z,33.33
2022-09-04T16:28:08.302Z,33.24
2022-09-04T16:30:48.252Z,34.36
2022-09-04T16:33:30.792Z,33.50
2022-09-04T16:36:17.484Z,32.55
2022-09-04T16:38:57.344Z,33.09
2022-09-04T16:41:31.658Z,33.74
2022-09-04T16:44:16.331Z,33.25
2022-09-04T16:47:03.099Z,33.58
2022-09-04T16:49:41.878Z,33.89
2022-09-04T16:52:20.001Z,34.75
2022-09-04T16:54:54.995Z,34.87
2022-09-04T16:57:50.536Z,34.67
2022-09-04T17:00:17.762Z,34.70
2022-09-04T17:02:53.506Z,35.13
2022-09-04T17:05:28.578Z,35.55
2022-09-04T17:08:10.758Z,35.05
2022-09-04T17:10:53.110Z,35.05
2022-09-04T17:13:38.042Z,35.20
2022-09-04T17:16:24.165Z,35.06
2022-09-04T17:18:54.668Z,35.69
2022-09-04T17:24:52.953Z,36.34
2022-09-04T17:29:05.205Z,35.47
2022-09-04T17:29:07.712Z,35.89
2022-09-04T17:31:17.413Z,36.10
2022-09-04T17:39:52.932Z,36.10
2022-09-04T17:40:36.302Z,36.72
2022-09-04T17:40:49.262Z,36.55
2022-09-04T17:43:36.692Z,37.07
2022-09-04T17:46:12.804Z,37.43
2022-09-04T17:48:42.963Z,37.45
2022-09-04T17:51:17.775Z,38.26
2022-09-04T17:53:51.677Z,38.20
2022-09-04T17:56:26.614Z,38.43
2022-09-04T17:59:06.361Z,38.65
2022-09-04T18:01:51.359Z,38.54
2022-09-04T18:04:40.202Z,38.41
2022-09-04T18:08:09.697Z,38.60
2022-09-04T18:10:37.942Z,38.92
2022-09-04T18:13:37.052Z,38.97
2022-09-04T18:16:50.364Z,38.24
2022-09-04T18:19:49.039Z,38.85
2022-09-04T18:22:32.083Z,39.04
2022-09-04T18:25:17.060Z,39.44
2022-09-04T18:28:21.331Z,39.16
2022-09-04T18:37:09.936Z,39.39
2022-09-04T18:37:21.673Z,39.71
2022-09-04T18:37:22.454Z,40.07
2022-09-04T18:40:04.223Z,40.21
2022-09-04T18:48:15.977Z,40.82
2022-09-04T18:50:30.452Z,40.88
2022-09-04T18:50:48.818Z,40.89
2022-09-04T18:51:21.308Z,40.61
2022-09-04T18:53:59.830Z,41.38
2022-09-04T18:56:42.943Z,41.12
2022-09-04T18:59:15.512Z,39.63
2022-09-04T19:01:52.309Z,41.35
2022-09-04T19:04:33.469Z,41.81
2022-09-04T19:07:07.718Z,41.75
2022-09-04T19:09:55.812Z,41.46
2022-09-04T19:12:35.759Z,42.13
2022-09-04T19:15:36.086Z,42.15
2022-09-04T19:18:46.587Z,41.65
2022-09-04T19:21:16.256Z,41.64
2022-09-04T19:24:01.065Z,41.94
2022-09-04T19:26:38.923Z,41.97
2022-09-04T19:29:24.356Z,42.39
2022-09-04T19:31:57.757Z,42.59
2022-09-04T19:34:44.248Z,42.22
2022-09-04T19:38:34.032Z,42.89
2022-09-04T19:46:01.037Z,40.86
2022-09-04T19:46:26.041Z,42.72
2022-09-04T19:46:29.014Z,43.04
2022-09-04T19:49:58.387Z,42.81
2022-09-04T19:53:31.771Z,42.60
2022-09-04T19:55:23.460Z,42.67
2022-09-04T19:58:37.322Z,42.19
2022-09-04T20:01:13.205Z,42.36
2022-09-04T20:04:01.388Z,41.85
2022-09-04T20:06:34.082Z,42.58
2022-09-04T20:09:16.349Z,42.93
2022-09-04T20:11:50.865Z,42.95
2022-09-04T20:14:34.748Z,42.58
2022-09-04T20:17:01.330Z,42.50
2022-09-04T20:19:52.415Z,42.54
2022-09-04T20:22:45.473Z,42.52
2022-09-04T20:25:21.303Z,43.02
2022-09-04T20:27:55.658Z,43.17
2022-09-04T20:30:25.075Z,43.05
2022-09-04T20:32:56.555Z,43.16
2022-09-04T20:35:36.859Z,43.39
2022-09-04T20:38:23.290Z,43.41
2022-09-04T20:40:57.455Z,43.42
2022-09-04T20:43:32.148Z,43.26
2022-09-04T20:52:12.252Z,43.58
2022-09-04T20:52:48.681Z,43.74
2022-09-04T20:52:54.891Z,43.42
2022-09-04T20:55:54.807Z,43.65
2022-09-04T21:03:09.195Z,44.11
2022-09-04T21:03:09.517Z,43.98
2022-09-04T21:04:47.502Z,43.89
2022-09-04T21:07:28.739Z,43.88
2022-09-04T21:10:26.042Z,43.89
2022-09-04T21:13:31.843Z,44.53
2022-09-04T21:16:13.638Z,44.49
2022-09-04T21:18:43.510Z,44.97
2022-09-04T21:21:21.589Z,45.02
2022-09-04T21:24:10.252Z,44.99
2022-09-04T21:27:05.588Z,44.58
2022-09-04T21:29:32.149Z,44.40
2022-09-04T21:32:13.940Z,44.78
2022-09-04T21:34:54.460Z,45.51
2022-09-04T21:37:50.189Z,44.94
2022-09-04T21:40:50.354Z,45.42
2022-09-04T21:43:36.818Z,45.54
2022-09-04T21:46:21.668Z,45.36
2022-09-04T21:49:00.140Z,45.36
2022-09-04T21:51:47.672Z,45.89
2022-09-04T21:54:37.795Z,45.92
2022-09-04T22:02:42.627Z,45.23
2022-09-04T22:02:44.442Z,45.25
2022-09-04T22:03:35.174Z,45.69
2022-09-04T22:09:00.165Z,45.20
2022-09-04T22:13:28.827Z,45.57
2022-09-04T22:13:43.379Z,45.52
2022-09-04T22:15:59.615Z,46.22
2022-09-04T22:18:29.262Z,45.70
2022-09-04T22:21:32.701Z,45.10
2022-09-04T22:24:17.528Z,45.79
2022-09-04T22:27:02.704Z,46.03
2022-09-04T22:29:40.248Z,45.81
2022-09-04T22:32:31.849Z,45.75
2022-09-04T22:35:36.371Z,45.56
2022-09-04T22:38:21.961Z,45.66
2022-09-04T22:41:06.623Z,46.02
2022-09-04T22:43:46.570Z,45.66
2022-09-04T22:46:24.928Z,46.27
2022-09-04T22:49:16.573Z,46.53
2022-09-04T22:52:01.671Z,46.31
2022-09-04T22:54:55.130Z,46.05
2022-09-04T22:57:35.816Z,46.14
2022-09-04T23:00:20.645Z,46.51
2022-09-04T23:03:11.655Z,46.89
2022-09-04T23:08:10.494Z,46.67
2022-09-04T23:13:43.882Z,46.76
2022-09-04T23:13:49.608Z,46.45
2022-09-04T23:15:59.265Z,46.50
2022-09-04T23:23:10.815Z,46.73
2022-09-04T23:26:34.454Z,46.59
2022-09-04T23:26:36.797Z,46.70
2022-09-04T23:28:02.731Z,47.27
2022-09-04T23:31:11.261Z,46.99
2022-09-04T23:34:06.180Z,46.84
2022-09-04T23:36:52.011Z,46.94
2022-09-04T23:39:46.628Z,46.89
2022-09-04T23:42:21.337Z,47.42
2022-09-04T23:45:19.621Z,47.24
2022-09-04T23:48:04.604Z,47.38
2022-09-04T23:50:57.619Z,46.93
2022-09-04T23:53:37.088Z,46.89
2022-09-04T23:56:04.506Z,46.87
2022-09-04T23:59:27.205Z,46.78
